Time,TemperatureF,DewpointF,PressureIn,WindDirection,WindDirectionDegrees,WindSpeedMPH,WindSpeedGustMPH,Humidity,HourlyPrecipIn,Conditions,Clouds,dailyrainin,SoftwareType,DateUTC
2013-01-16 00:03:00,36.0,29.0,30.20,ESE,113,2.0,4.0,74,0.02,,,0.15,,2013-01-16 05:03:00,
2013-01-16 00:12:00,36.0,29.0,30.20,ESE,113,2.0,4.0,74,0.02,,,0.15,,2013-01-16 05:12:00,
2013-01-16 00:22:00,36.0,29.0,30.19,ESE,118,1.0,4.0,75,0.02,,,0.15,,2013-01-16 05:22:00,
2013-01-16 00:32:00,36.0,29.0,30.19,ESE,113,2.0,6.0,77,0.03,,,0.16,,2013-01-16 05:32:00,
2013-01-16 00:42:00,36.0,29.0,30.19,ESE,113,2.0,6.0,77,0.03,,,0.16,,2013-01-16 05:42:00,
2013-01-16 00:53:00,36.0,30.0,30.19,SE,129,2.0,4.0,79,0.03,,,0.17,,2013-01-16 05:53:00,
2013-01-16 01:03:00,35.0,30.0,30.19,SE,139,4.0,9.0,81,0.05,,,0.20,,2013-01-16 06:03:00,
2013-01-16 01:12:00,35.0,30.0,30.19,SE,139,4.0,9.0,81,0.05,,,0.20,,2013-01-16 06:12:00,
2013-01-16 01:22:00,34.0,29.0,30.19,SE,139,8.0,8.0,83,0.06,,,0.21,,2013-01-16 06:22:00,
2013-01-16 01:32:00,34.0,30.0,30.16,SE,125,4.0,8.0,85,0.07,,,0.23,,2013-01-16 06:32:00,
2013-01-16 01:43:00,34.0,30.0,30.16,SE,125,4.0,8.0,85,0.07,,,0.23,,2013-01-16 06:43:00,
2013-01-16 01:52:00,34.0,30.0,30.16,SSE,153,1.0,8.0,86,0.08,,,0.25,,2013-01-16 06:52:00,
2013-01-16 02:02:00,33.0,30.0,30.16,SE,143,3.0,5.0,88,0.08,,,0.27,,2013-01-16 07:02:00,
2013-01-16 02:12:00,33.0,30.0,30.16,SE,143,3.0,5.0,88,0.08,,,0.27,,2013-01-16 07:12:00,
2013-01-16 02:22:00,33.0,30.0,30.16,SE,143,3.0,5.0,88,0.08,,,0.27,,2013-01-16 07:22:00,
2013-01-16 02:33:00,33.0,30.0,30.16,SE,140,1.0,9.0,89,0.06,,,0.19,,2013-01-16 07:33:00,
2013-01-16 02:42:00,33.0,30.0,30.16,SE,140,1.0,9.0,89,0.06,,,0.19,,2013-01-16 07:42:00,
2013-01-16 02:52:00,33.0,30.0,30.15,East,91,1.0,6.0,89,0.07,,,0.21,,2013-01-16 07:52:00,
2013-01-16 03:03:00,33.0,30.0,30.15,SE,135,0.0,4.0,90,0.07,,,0.21,,2013-01-16 08:03:00,
2013-01-16 03:12:00,33.0,30.0,30.15,SE,135,0.0,4.0,90,0.07,,,0.21,,2013-01-16 08:12:00,
2013-01-16 03:22:00,33.0,30.0,30.15,SE,129,3.0,9.0,90,0.08,,,0.22,,2013-01-16 08:22:00,
2013-01-16 03:32:00,33.0,30.0,30.13,SSE,152,2.0,7.0,90,0.10,,,0.26,,2013-01-16 08:32:00,
2013-01-16 03:42:00,33.0,30.0,30.13,SSE,152,2.0,7.0,90,0.10,,,0.26,,2013-01-16 08:42:00,
2013-01-16 03:52:00,33.0,30.0,30.13,SE,127,6.0,10.0,90,0.12,,,0.29,,2013-01-16 08:52:00,
2013-01-16 04:02:00,33.0,31.0,30.11,South,172,6.0,10.0,91,0.14,,,0.34,,2013-01-16 09:02:00,
2013-01-16 04:12:00,33.0,31.0,30.11,South,172,6.0,10.0,91,0.14,,,0.34,,2013-01-16 09:12:00,
2013-01-16 04:22:00,33.0,31.0,30.11,ESE,122,5.0,8.0,91,0.15,,,0.36,,2013-01-16 09:22:00,
2013-01-16 04:32:00,32.0,30.0,30.10,ESE,119,3.0,10.0,91,0.11,,,0.36,,2013-01-16 09:32:00,
2013-01-16 04:42:00,32.0,30.0,30.10,ESE,119,3.0,10.0,91,0.11,,,0.36,,2013-01-16 09:42:00,
2013-01-16 04:52:00,32.0,30.0,30.09,SE,144,4.0,4.0,91,0.08,,,0.36,,2013-01-16 09:52:00,
2013-01-16 05:02:00,32.0,30.0,30.09,SE,129,2.0,5.0,91,0.04,,,0.36,,2013-01-16 10:02:00,
2013-01-16 05:12:00,32.0,30.0,30.09,SE,129,2.0,5.0,91,0.04,,,0.36,,2013-01-16 10:12:00,
2013-01-16 05:22:00,32.0,30.0,30.10,SE,128,1.0,3.0,91,0.01,,,0.36,,2013-01-16 10:22:00,
2013-01-16 05:32:00,32.0,30.0,30.09,SE,132,4.0,4.0,92,0.01,,,0.37,,2013-01-16 10:32:00,
2013-01-16 05:42:00,32.0,30.0,30.09,SE,132,4.0,4.0,92,0.01,,,0.37,,2013-01-16 10:42:00,
2013-01-16 05:52:00,32.0,30.0,30.08,SE,139,1.0,6.0,92,0.01,,,0.37,,2013-01-16 10:52:00,
2013-01-16 06:02:00,32.0,30.0,30.07,SE,141,2.0,3.0,92,0.02,,,0.38,,2013-01-16 11:02:00,
2013-01-16 06:12:00,32.0,30.0,30.07,SE,141,2.0,3.0,92,0.02,,,0.38,,2013-01-16 11:12:00,
2013-01-16 06:23:00,32.0,30.0,30.07,SE,140,3.0,4.0,92,0.02,,,0.38,,2013-01-16 11:23:00,
2013-01-16 06:33:00,32.0,30.0,30.05,SE,140,2.0,3.0,92,0.04,,,0.41,,2013-01-16 11:33:00,
2013-01-16 06:42:00,32.0,30.0,30.05,SE,140,2.0,3.0,92,0.04,,,0.41,,2013-01-16 11:42:00,
2013-01-16 06:52:00,33.0,31.0,30.06,SE,129,0.0,3.0,92,0.05,,,0.42,,2013-01-16 11:52:00,
2013-01-16 07:03:00,33.0,31.0,30.05,SE,131,2.0,3.0,92,0.07,,,0.45,,2013-01-16 12:03:00,
2013-01-16 07:13:00,33.0,31.0,30.05,SE,131,2.0,3.0,92,0.07,,,0.45,,2013-01-16 12:13:00,
2013-01-16 07:22:00,33.0,31.0,30.05,East,79,3.0,5.0,92,0.07,,,0.45,,2013-01-16 12:22:00,
2013-01-16 07:33:00,32.0,30.0,30.06,East,91,1.0,3.0,93,0.06,,,0.46,,2013-01-16 12:33:00,
2013-01-16 07:43:00,32.0,30.0,30.06,East,91,1.0,3.0,93,0.06,,,0.46,,2013-01-16 12:43:00,
2013-01-16 07:53:00,33.0,31.0,30.05,East,98,0.0,4.0,93,0.05,,,0.47,,2013-01-16 12:53:00,
2013-01-16 08:03:00,32.0,30.0,30.04,East,100,0.0,3.0,93,0.03,,,0.47,,2013-01-16 13:03:00,
2013-01-16 08:12:00,32.0,30.0,30.04,East,100,0.0,3.0,93,0.03,,,0.47,,2013-01-16 13:12:00,
2013-01-16 08:23:00,32.0,30.0,30.03,East,101,0.0,1.0,93,0.04,,,0.49,,2013-01-16 13:23:00,
2013-01-16 08:33:00,33.0,31.0,30.02,East,100,4.0,4.0,93,0.04,,,0.50,,2013-01-16 13:33:00,
2013-01-16 08:43:00,33.0,31.0,30.02,East,100,4.0,4.0,93,0.04,,,0.50,,2013-01-16 13:43:00,
2013-01-16 08:52:00,32.0,30.0,30.02,ESE,107,5.0,6.0,93,0.03,,,0.50,,2013-01-16 13:52:00,
2013-01-16 09:03:00,32.0,30.0,30.01,ESE,108,0.0,5.0,93,0.03,,,0.50,,2013-01-16 14:03:00,
2013-01-16 09:12:00,32.0,30.0,30.01,ESE,108,0.0,5.0,93,0.03,,,0.50,,2013-01-16 14:12:00,
2013-01-16 09:23:00,32.0,30.0,29.98,ESE,111,3.0,3.0,93,0.03,,,0.51,,2013-01-16 14:23:00,
2013-01-16 09:33:00,33.0,31.0,29.96,East,101,1.0,5.0,93,0.01,,,0.51,,2013-01-16 14:33:00,
2013-01-16 09:43:00,33.0,31.0,29.96,East,101,1.0,5.0,93,0.01,,,0.51,,2013-01-16 14:43:00,
2013-01-16 09:53:00,33.0,31.0,29.95,East,101,3.0,3.0,93,0.01,,,0.51,,2013-01-16 14:53:00,
2013-01-16 10:03:00,33.0,31.0,29.96,ENE,58,1.0,6.0,93,0.02,,,0.52,,2013-01-16 15:03:00,
2013-01-16 10:12:00,33.0,31.0,29.96,ENE,58,1.0,6.0,93,0.02,,,0.52,,2013-01-16 15:12:00,
2013-01-16 10:23:00,33.0,31.0,29.96,East,82,3.0,3.0,93,0.02,,,0.52,,2013-01-16 15:23:00,
2013-01-16 10:33:00,33.0,31.0,29.96,East,82,3.0,5.0,93,0.01,,,0.52,,2013-01-16 15:33:00,
2013-01-16 10:43:00,33.0,31.0,29.96,East,82,3.0,5.0,93,0.01,,,0.52,,2013-01-16 15:43:00,
2013-01-16 10:52:00,33.0,31.0,29.98,East,81,4.0,5.0,93,0.01,,,0.52,,2013-01-16 15:52:00,
2013-01-16 11:04:00,33.0,31.0,29.97,ENE,77,3.0,4.0,93,0.01,,,0.53,,2013-01-16 16:04:00,
2013-01-16 11:12:00,33.0,31.0,29.97,ENE,77,3.0,4.0,93,0.01,,,0.53,,2013-01-16 16:12:00,
2013-01-16 11:23:00,33.0,31.0,29.96,ENE,77,3.0,5.0,93,0.02,,,0.54,,2013-01-16 16:23:00,
2013-01-16 11:33:00,33.0,31.0,29.95,ENE,77,3.0,5.0,93,0.02,,,0.54,,2013-01-16 16:33:00,
2013-01-16 11:43:00,33.0,31.0,29.95,ENE,77,3.0,5.0,93,0.02,,,0.54,,2013-01-16 16:43:00,
2013-01-16 11:52:00,33.0,31.0,29.93,ENE,74,0.0,3.0,93,0.03,,,0.55,,2013-01-16 16:52:00,
2013-01-16 12:03:00,33.0,31.0,29.93,ENE,74,0.0,3.0,93,0.03,,,0.56,,2013-01-16 17:03:00,
2013-01-16 12:12:00,33.0,31.0,29.93,ENE,74,0.0,3.0,93,0.03,,,0.56,,2013-01-16 17:12:00,
2013-01-16 12:23:00,33.0,31.0,29.93,ENE,73,0.0,3.0,93,0.03,,,0.56,,2013-01-16 17:23:00,
2013-01-16 12:33:00,34.0,32.0,29.91,ENE,73,0.0,3.0,93,0.03,,,0.57,,2013-01-16 17:33:00,
2013-01-16 12:43:00,34.0,32.0,29.91,ENE,73,0.0,3.0,93,0.03,,,0.57,,2013-01-16 17:43:00,
2013-01-16 12:53:00,34.0,32.0,29.88,ENE,75,0.0,2.0,93,0.02,,,0.57,,2013-01-16 17:53:00,
2013-01-16 13:03:00,34.0,32.0,29.89,ENE,70,0.0,4.0,93,0.02,,,0.57,,2013-01-16 18:03:00,
2013-01-16 13:13:00,34.0,32.0,29.89,ENE,70,0.0,4.0,93,0.02,,,0.57,,2013-01-16 18:13:00,
2013-01-16 13:23:00,34.0,32.0,29.86,ENE,74,0.0,4.0,93,0.02,,,0.58,,2013-01-16 18:23:00,
2013-01-16 13:33:00,33.0,31.0,29.81,East,94,1.0,3.0,93,0.01,,,0.58,,2013-01-16 18:33:00,
2013-01-16 13:42:00,33.0,31.0,29.81,East,94,1.0,3.0,93,0.01,,,0.58,,2013-01-16 18:42:00,
2013-01-16 13:53:00,33.0,31.0,29.81,East,92,3.0,5.0,93,0.01,,,0.58,,2013-01-16 18:53:00,
2013-01-16 14:03:00,34.0,32.0,29.83,ENE,68,0.0,4.0,93,0.01,,,0.58,,2013-01-16 19:03:00,
2013-01-16 14:12:00,34.0,32.0,29.83,ENE,68,0.0,4.0,93,0.01,,,0.58,,2013-01-16 19:12:00,
2013-01-16 14:23:00,34.0,32.0,29.78,East,92,3.0,14.0,93,0.00,,,0.58,,2013-01-16 19:23:00,
2013-01-16 14:33:00,34.0,32.0,29.88,NE,45,6.0,8.0,93,0.01,,,0.59,,2013-01-16 19:33:00,
2013-01-16 14:43:00,34.0,32.0,29.88,NE,45,6.0,8.0,93,0.01,,,0.59,,2013-01-16 19:43:00,
2013-01-16 14:52:00,34.0,32.0,29.88,NE,56,1.0,6.0,93,0.01,,,0.59,,2013-01-16 19:52:00,
2013-01-16 15:03:00,34.0,32.0,29.88,ENE,57,0.0,0.0,93,0.01,,,0.59,,2013-01-16 20:03:00,
2013-01-16 15:12:00,34.0,32.0,29.88,ENE,57,0.0,0.0,93,0.01,,,0.59,,2013-01-16 20:12:00,
2013-01-16 15:23:00,34.0,32.0,29.86,NE,56,0.0,2.0,93,0.01,,,0.59,,2013-01-16 20:23:00,
2013-01-16 15:33:00,34.0,32.0,29.85,ENE,58,0.0,3.0,93,0.00,,,0.59,,2013-01-16 20:33:00,
2013-01-16 15:43:00,34.0,32.0,29.85,ENE,58,0.0,3.0,93,0.00,,,0.59,,2013-01-16 20:43:00,
2013-01-16 15:53:00,34.0,32.0,29.86,ENE,60,3.0,3.0,93,0.01,,,0.60,,2013-01-16 20:53:00,
2013-01-16 16:03:00,34.0,32.0,29.88,ENE,58,1.0,3.0,93,0.01,,,0.60,,2013-01-16 21:03:00,
2013-01-16 16:12:00,34.0,32.0,29.88,ENE,58,1.0,3.0,93,0.01,,,0.60,,2013-01-16 21:12:00,
2013-01-16 16:22:00,35.0,33.0,29.88,ENE,59,0.0,0.0,93,0.01,,,0.60,,2013-01-16 21:22:00,
2013-01-16 16:33:00,35.0,33.0,29.87,NE,56,1.0,3.0,93,0.01,,,0.60,,2013-01-16 21:33:00,
2013-01-16 16:43:00,35.0,33.0,29.87,NE,56,1.0,3.0,93,0.01,,,0.60,,2013-01-16 21:43:00,
2013-01-16 16:52:00,35.0,33.0,29.87,ENE,58,0.0,3.0,93,0.00,,,0.60,,2013-01-16 21:52:00,
2013-01-16 17:03:00,35.0,33.0,29.87,NNE,16,0.0,4.0,93,0.01,,,0.61,,2013-01-16 22:03:00,
2013-01-16 17:12:00,35.0,33.0,29.87,NNE,16,0.0,4.0,93,0.01,,,0.61,,2013-01-16 22:12:00,
2013-01-16 17:23:00,35.0,33.0,29.87,NNE,14,3.0,3.0,93,0.01,,,0.61,,2013-01-16 22:23:00,
2013-01-16 17:33:00,35.0,33.0,29.87,North,0,2.0,4.0,93,0.01,,,0.61,,2013-01-16 22:33:00,
2013-01-16 17:43:00,35.0,33.0,29.87,North,0,2.0,4.0,93,0.01,,,0.61,,2013-01-16 22:43:00,
2013-01-16 17:52:00,35.0,33.0,29.87,North,0,0.0,3.0,93,0.01,,,0.61,,2013-01-16 22:52:00,
2013-01-16 18:03:00,35.0,33.0,29.88,NW,323,2.0,6.0,92,0.01,,,0.62,,2013-01-16 23:03:00,
2013-01-16 18:12:00,35.0,33.0,29.88,NNW,327,5.0,8.0,92,0.01,,,0.62,,2013-01-16 23:12:00,
2013-01-16 18:23:00,35.0,33.0,29.88,NNW,327,5.0,8.0,92,0.01,,,0.62,,2013-01-16 23:23:00,
2013-01-16 18:33:00,36.0,34.0,29.88,NNW,334,3.0,6.0,92,0.01,,,0.62,,2013-01-16 23:33:00,
2013-01-16 18:42:00,36.0,34.0,29.88,NNW,334,3.0,6.0,92,0.01,,,0.62,,2013-01-16 23:42:00,
2013-01-16 18:52:00,36.0,34.0,29.88,NW,324,4.0,7.0,92,0.01,,,0.62,,2013-01-16 23:52:00,
2013-01-16 19:02:00,36.0,34.0,29.86,NW,324,5.0,7.0,92,0.01,,,0.62,,2013-01-17 00:02:00,
2013-01-16 19:12:00,36.0,34.0,29.86,NW,324,5.0,7.0,92,0.01,,,0.62,,2013-01-17 00:12:00,
2013-01-16 19:22:00,36.0,34.0,29.86,NNW,342,4.0,8.0,91,0.01,,,0.63,,2013-01-17 00:22:00,
2013-01-16 19:32:00,36.0,34.0,29.88,NNW,345,2.0,8.0,91,0.01,,,0.63,,2013-01-17 00:32:00,
2013-01-16 19:42:00,36.0,34.0,29.88,NNW,345,2.0,8.0,91,0.01,,,0.63,,2013-01-17 00:42:00,
2013-01-16 19:52:00,36.0,34.0,29.88,NNW,337,4.0,6.0,91,0.01,,,0.63,,2013-01-17 00:52:00,
2013-01-16 20:02:00,36.0,33.0,29.89,NNW,340,0.0,6.0,90,0.01,,,0.63,,2013-01-17 01:02:00,
2013-01-16 20:12:00,36.0,33.0,29.89,NNW,340,0.0,6.0,90,0.01,,,0.63,,2013-01-17 01:12:00,
2013-01-16 20:22:00,36.0,33.0,29.88,NNW,341,5.0,10.0,90,0.00,,,0.63,,2013-01-17 01:22:00,
2013-01-16 20:33:00,36.0,33.0,29.88,North,357,3.0,7.0,89,0.01,,,0.64,,2013-01-17 01:33:00,
2013-01-16 20:42:00,36.0,33.0,29.88,North,357,3.0,7.0,89,0.01,,,0.64,,2013-01-17 01:42:00,
2013-01-16 20:52:00,36.0,33.0,29.89,NNW,337,1.0,10.0,89,0.01,,,0.64,,2013-01-17 01:52:00,
2013-01-16 21:02:00,36.0,33.0,29.89,NNW,331,5.0,11.0,89,0.01,,,0.64,,2013-01-17 02:02:00,
2013-01-16 21:12:00,36.0,33.0,29.89,NNW,331,5.0,11.0,89,0.01,,,0.64,,2013-01-17 02:12:00,
2013-01-16 21:22:00,36.0,33.0,29.90,NNW,337,5.0,9.0,88,0.01,,,0.64,,2013-01-17 02:22:00,
2013-01-16 21:32:00,36.0,33.0,29.89,North,354,3.0,8.0,88,0.01,,,0.65,,2013-01-17 02:32:00,
2013-01-16 21:42:00,36.0,33.0,29.89,North,354,3.0,8.0,88,0.01,,,0.65,,2013-01-17 02:42:00,
2013-01-16 21:52:00,36.0,33.0,29.89,North,354,3.0,8.0,88,0.01,,,0.65,,2013-01-17 02:52:00,
2013-01-16 22:03:00,37.0,34.0,29.89,NW,315,9.0,9.0,88,0.01,,,0.65,,2013-01-17 03:03:00,
2013-01-16 22:12:00,37.0,34.0,29.89,NW,315,9.0,9.0,88,0.01,,,0.65,,2013-01-17 03:12:00,
2013-01-16 22:22:00,37.0,34.0,29.89,North,1,3.0,7.0,88,0.01,,,0.65,,2013-01-17 03:22:00,
2013-01-16 22:33:00,37.0,34.0,29.89,NNW,329,6.0,9.0,87,0.00,,,0.65,,2013-01-17 03:33:00,
2013-01-16 22:43:00,37.0,34.0,29.89,NNW,329,6.0,9.0,87,0.00,,,0.65,,2013-01-17 03:43:00,
2013-01-16 22:52:00,37.0,34.0,29.87,NNW,342,4.0,5.0,87,0.00,,,0.65,,2013-01-17 03:52:00,
2013-01-16 23:02:00,37.0,34.0,29.88,NNW,333,3.0,5.0,87,0.01,,,0.66,,2013-01-17 04:02:00,
2013-01-16 23:12:00,37.0,34.0,29.89,NNW,343,3.0,8.0,87,0.01,,,0.66,,2013-01-17 04:12:00,
2013-01-16 23:22:00,37.0,34.0,29.89,NNW,343,3.0,8.0,87,0.01,,,0.66,,2013-01-17 04:22:00,
2013-01-16 23:33:00,37.0,33.0,29.89,NNW,340,3.0,4.0,86,0.01,,,0.66,,2013-01-17 04:33:00,
2013-01-16 23:42:00,37.0,33.0,29.89,NNW,340,3.0,4.0,86,0.01,,,0.66,,2013-01-17 04:42:00,
2013-01-16 23:52:00,37.0,33.0,29.89,NNW,333,1.0,8.0,86,0.01,,,0.65,,2013-01-17 04:52:00,